createdAt,value
2022-07-31T00:00:39.499Z,17.16
2022-07-31T00:01:39.454Z,17.16
2022-07-31T00:02:39.445Z,17.16
2022-07-31T00:03:39.547Z,17.14
2022-07-31T00:04:39.421Z,17.16
2022-07-31T00:05:41.877Z,17.15
2022-07-31T00:06:39.424Z,17.16
2022-07-31T00:07:39.388Z,17.03
2022-07-31T00:08:39.375Z,17.04
2022-07-31T00:09:45.507Z,17.14
2022-07-31T00:10:40.352Z,17.19
2022-07-31T00:11:39.340Z,17.08
2022-07-31T00:12:39.329Z,17.03
2022-07-31T00:13:57.217Z,17.12
2022-07-31T00:14:40.307Z,17.11
2022-07-31T00:15:39.292Z,17.06
2022-07-31T00:16:39.286Z,17.15
2022-07-31T00:17:39.294Z,17.11
2022-07-31T00:18:39.263Z,17.12
2022-07-31T00:19:39.276Z,17.15
2022-07-31T00:20:39.260Z,17.12
2022-07-31T00:21:39.226Z,17.19
2022-07-31T00:22:39.222Z,17.15
2022-07-31T00:23:39.205Z,17.11
2022-07-31T00:24:39.220Z,17.15
2022-07-31T00:25:39.184Z,17.04
2022-07-31T00:26:39.175Z,17.06
2022-07-31T00:27:39.161Z,17.06
2022-07-31T00:28:39.153Z,17.04
2022-07-31T00:29:39.163Z,16.96
2022-07-31T00:30:39.125Z,16.94
2022-07-31T00:31:39.112Z,16.98
2022-07-31T00:32:39.105Z,16.94
2022-07-31T00:33:39.093Z,16.98
2022-07-31T00:34:39.082Z,16.96
2022-07-31T00:35:39.097Z,16.94
2022-07-31T00:36:39.083Z,16.98
2022-07-31T00:37:39.045Z,16.88
2022-07-31T00:38:39.039Z,16.98
2022-07-31T00:39:39.021Z,16.94
2022-07-31T00:40:39.014Z,16.93
2022-07-31T00:41:39.030Z,16.98
2022-07-31T00:42:38.992Z,16.96
2022-07-31T00:43:38.985Z,16.97
2022-07-31T00:44:38.971Z,16.97
2022-07-31T00:45:38.961Z,16.97
2022-07-31T00:46:38.976Z,16.97
2022-07-31T00:47:39.265Z,16.97
2022-07-31T00:48:38.926Z,16.96
2022-07-31T00:49:38.911Z,16.96
2022-07-31T00:50:38.929Z,17.04
2022-07-31T00:51:38.912Z,17.04
2022-07-31T00:52:38.880Z,16.94
2022-07-31T00:53:38.866Z,16.97
2022-07-31T00:54:38.858Z,17.01
2022-07-31T00:55:50.975Z,16.96
2022-07-31T00:56:39.870Z,16.98
2022-07-31T00:57:38.818Z,16.94
2022-07-31T00:58:38.815Z,17.03
2022-07-31T00:59:38.801Z,16.98
2022-07-31T01:00:38.896Z,17.00
2022-07-31T01:01:38.849Z,16.94
2022-07-31T01:02:46.542Z,16.93
2022-07-31T01:03:39.755Z,17.00
2022-07-31T01:04:41.745Z,16.93
2022-07-31T01:05:38.732Z,16.93
2022-07-31T01:06:42.547Z,16.94
2022-07-31T01:07:38.705Z,16.96
2022-07-31T01:08:38.702Z,16.96
2022-07-31T01:09:38.691Z,16.93
2022-07-31T01:10:38.678Z,16.97
2022-07-31T01:11:38.685Z,17.01
2022-07-31T01:12:38.655Z,17.01
2022-07-31T01:13:38.644Z,16.82
2022-07-31T01:14:38.633Z,16.97
2022-07-31T01:15:38.621Z,16.88
2022-07-31T01:16:38.638Z,16.88
2022-07-31T01:17:38.602Z,16.98
2022-07-31T01:18:38.592Z,16.85
2022-07-31T01:19:43.195Z,16.94
2022-07-31T01:20:38.563Z,16.91
2022-07-31T01:21:38.580Z,16.86
2022-07-31T01:22:38.539Z,16.93
2022-07-31T01:23:38.531Z,16.81
2022-07-31T01:24:38.515Z,16.93
2022-07-31T01:25:38.511Z,16.91
2022-07-31T01:26:38.497Z,16.91
2022-07-31T01:27:49.620Z,17.00
2022-07-31T01:28:39.496Z,16.89
2022-07-31T01:29:38.491Z,16.94
2022-07-31T01:30:38.451Z,16.85
2022-07-31T01:31:38.470Z,16.97
2022-07-31T01:32:38.440Z,16.97
2022-07-31T01:33:38.419Z,16.88
2022-07-31T01:34:38.407Z,16.91
2022-07-31T01:35:38.397Z,17.03
2022-07-31T01:36:38.406Z,16.93
2022-07-31T01:37:38.394Z,16.94
2022-07-31T01:38:42.439Z,16.97
2022-07-31T01:39:39.376Z,16.83
2022-07-31T01:40:38.339Z,16.88
2022-07-31T01:41:38.337Z,16.88
2022-07-31T01:42:38.338Z,16.91
2022-07-31T01:43:38.311Z,16.94
2022-07-31T01:44:38.319Z,17.03
2022-07-31T01:45:38.285Z,16.91
2022-07-31T01:46:41.576Z,16.94
2022-07-31T01:47:38.261Z,16.82
2022-07-31T01:48:38.248Z,16.85
2022-07-31T01:49:38.257Z,16.83
2022-07-31T01:50:43.788Z,16.86
2022-07-31T01:51:39.221Z,16.81
2022-07-31T01:52:38.228Z,16.82
2022-07-31T01:53:38.194Z,16.73
2022-07-31T01:54:38.184Z,16.70
2022-07-31T01:56:02.249Z,16.71
2022-07-31T01:56:39.160Z,16.76
2022-07-31T01:57:38.176Z,16.71
2022-07-31T01:58:38.134Z,16.61
2022-07-31T01:59:38.129Z,16.68
2022-07-31T02:00:38.287Z,16.60
2022-07-31T02:01:38.171Z,16.61
2022-07-31T02:02:38.125Z,16.56
2022-07-31T02:03:43.728Z,16.63
2022-07-31T02:04:39.065Z,16.67
2022-07-31T02:05:38.054Z,16.60
2022-07-31T02:06:38.041Z,16.58
2022-07-31T02:07:38.038Z,16.67
2022-07-31T02:08:38.125Z,16.60
2022-07-31T02:09:38.015Z,16.57
2022-07-31T02:10:39.002Z,16.63
2022-07-31T02:11:49.020Z,16.64
2022-07-31T02:12:38.978Z,16.57
2022-07-31T02:13:37.969Z,16.57
2022-07-31T02:14:37.982Z,16.63
2022-07-31T02:15:37.969Z,16.68
2022-07-31T02:16:37.972Z,16.64
2022-07-31T02:17:37.925Z,16.57
2022-07-31T02:18:37.937Z,16.60
2022-07-31T02:19:37.901Z,16.57
2022-07-31T02:20:37.883Z,16.60
2022-07-31T02:21:37.882Z,16.63
2022-07-31T02:22:37.868Z,16.61
2022-07-31T02:23:38.237Z,16.42
2022-07-31T02:24:37.845Z,16.50
2022-07-31T02:25:37.895Z,16.43
2022-07-31T02:26:37.822Z,16.45
2022-07-31T02:27:53.960Z,16.42
2022-07-31T02:28:38.797Z,16.41
2022-07-31T02:29:37.784Z,16.35
2022-07-31T02:30:39.037Z,16.28
2022-07-31T02:31:37.763Z,16.30
2022-07-31T02:32:37.777Z,16.34
2022-07-31T02:33:37.741Z,16.31
2022-07-31T02:34:37.732Z,16.42
2022-07-31T02:35:37.721Z,16.42
2022-07-31T02:36:38.709Z,16.45
2022-07-31T02:37:37.724Z,16.43
2022-07-31T02:38:37.681Z,16.43
2022-07-31T02:39:37.673Z,16.46
2022-07-31T02:40:37.662Z,16.35
2022-07-31T02:41:37.676Z,16.33
2022-07-31T02:42:37.645Z,16.43
2022-07-31T02:43:37.659Z,16.31
2022-07-31T02:44:37.620Z,16.41
2022-07-31T02:45:37.602Z,16.45
2022-07-31T02:46:37.614Z,16.38
2022-07-31T02:47:37.617Z,16.41
2022-07-31T02:48:37.573Z,16.39
2022-07-31T02:49:37.563Z,16.42
2022-07-31T02:50:37.553Z,16.38
2022-07-31T02:51:42.618Z,16.30
2022-07-31T02:52:38.554Z,16.30
2022-07-31T02:53:37.526Z,16.35
2022-07-31T02:54:37.504Z,16.25
2022-07-31T02:55:37.496Z,16.33
2022-07-31T02:56:37.482Z,16.24
2022-07-31T02:57:37.472Z,16.20
2022-07-31T02:58:37.489Z,16.23
2022-07-31T02:59:37.451Z,16.28
2022-07-31T03:00:37.471Z,16.27
2022-07-31T03:01:37.426Z,16.20
2022-07-31T03:02:37.883Z,16.12
2022-07-31T03:03:37.405Z,16.15
2022-07-31T03:04:37.411Z,16.23
2022-07-31T03:05:37.385Z,16.21
2022-07-31T03:06:37.391Z,16.25
2022-07-31T03:07:37.362Z,16.17
2022-07-31T03:08:37.354Z,16.20
2022-07-31T03:09:37.337Z,16.15
2022-07-31T03:10:37.328Z,16.14
2022-07-31T03:11:37.341Z,16.12
2022-07-31T03:12:37.300Z,16.11
2022-07-31T03:13:37.288Z,16.14
2022-07-31T03:14:37.284Z,16.11
2022-07-31T03:15:37.264Z,16.21
2022-07-31T03:16:37.289Z,16.14
2022-07-31T03:17:38.409Z,16.12
2022-07-31T03:18:37.239Z,16.12
2022-07-31T03:19:37.224Z,16.15
2022-07-31T03:20:37.212Z,16.20
2022-07-31T03:21:37.223Z,16.20
2022-07-31T03:22:37.196Z,16.20
2022-07-31T03:23:37.188Z,16.23
2022-07-31T03:24:37.166Z,16.23
2022-07-31T03:25:37.158Z,16.24
2022-07-31T03:26:37.177Z,16.24
2022-07-31T03:27:37.140Z,16.23
2022-07-31T03:28:37.124Z,16.23
2022-07-31T03:29:42.568Z,16.27
2022-07-31T03:30:38.097Z,16.15
2022-07-31T03:31:37.150Z,16.23
2022-07-31T03:32:37.073Z,16.27
2022-07-31T03:33:37.064Z,16.21
2022-07-31T03:34:37.053Z,16.21
2022-07-31T03:35:42.214Z,16.24
2022-07-31T03:36:38.054Z,16.24
2022-07-31T03:37:37.019Z,16.14
2022-07-31T03:38:41.489Z,16.24
2022-07-31T03:39:37.995Z,16.11
2022-07-31T03:40:36.980Z,16.15
2022-07-31T03:41:36.997Z,16.15
2022-07-31T03:42:36.983Z,16.20
2022-07-31T03:43:44.223Z,16.12
2022-07-31T03:44:37.939Z,16.11
2022-07-31T03:45:36.932Z,16.12
2022-07-31T03:46:36.914Z,16.07
2022-07-31T03:47:36.934Z,16.14
2022-07-31T03:48:36.896Z,16.08
2022-07-31T03:49:36.971Z,16.04
2022-07-31T03:50:36.874Z,16.04
2022-07-31T03:51:36.887Z,16.09
2022-07-31T03:52:36.877Z,16.05
2022-07-31T03:53:36.837Z,16.02
2022-07-31T03:54:36.827Z,16.05
2022-07-31T03:55:36.842Z,16.01
2022-07-31T03:56:36.829Z,16.02
2022-07-31T03:57:36.794Z,15.90
2022-07-31T03:58:37.992Z,15.93
2022-07-31T03:59:40.565Z,15.97
2022-07-31T04:00:37.760Z,15.92
2022-07-31T04:01:57.838Z,15.93
2022-07-31T04:02:37.792Z,15.96
2022-07-31T04:03:36.725Z,15.96
2022-07-31T04:04:36.733Z,15.93
2022-07-31T04:05:36.703Z,16.01
2022-07-31T04:06:36.690Z,15.92
2022-07-31T04:07:36.673Z,16.01
2022-07-31T04:08:36.669Z,15.92
2022-07-31T04:09:36.677Z,15.93
2022-07-31T04:10:36.643Z,15.86
2022-07-31T04:11:36.642Z,15.82
2022-07-31T04:12:36.623Z,15.89
2022-07-31T04:13:36.610Z,15.72
2022-07-31T04:14:36.624Z,15.78
2022-07-31T04:15:36.587Z,15.68
2022-07-31T04:16:36.573Z,15.69
2022-07-31T04:17:36.568Z,15.74
2022-07-31T04:18:36.556Z,15.75
2022-07-31T04:19:36.566Z,15.72
2022-07-31T04:20:36.557Z,15.67
2022-07-31T04:21:36.515Z,15.64
2022-07-31T04:22:36.510Z,15.72
2022-07-31T04:23:36.493Z,15.68
2022-07-31T04:24:36.514Z,15.65
2022-07-31T04:25:36.472Z,15.74
2022-07-31T04:26:36.463Z,15.65
2022-07-31T04:27:36.452Z,15.72
2022-07-31T04:28:37.441Z,15.72
2022-07-31T04:29:36.456Z,15.69
2022-07-31T04:30:36.447Z,15.74
2022-07-31T04:31:36.408Z,15.72
2022-07-31T04:32:36.399Z,15.80
2022-07-31T04:33:36.384Z,15.86
2022-07-31T04:34:37.372Z,15.86
2022-07-31T04:35:36.387Z,15.86
2022-07-31T04:36:36.383Z,15.92
2022-07-31T04:37:36.339Z,15.90
2022-07-31T04:38:36.331Z,15.82
2022-07-31T04:39:36.314Z,15.80
2022-07-31T04:40:36.301Z,15.97
2022-07-31T04:41:36.295Z,15.96
2022-07-31T04:42:36.309Z,15.97
2022-07-31T04:43:36.274Z,16.00
2022-07-31T04:44:36.287Z,16.01
2022-07-31T04:45:36.246Z,16.08
2022-07-31T04:46:36.262Z,16.07
2022-07-31T04:47:36.224Z,16.08
2022-07-31T04:48:36.221Z,16.05
2022-07-31T04:49:37.305Z,16.11
2022-07-31T04:50:36.192Z,16.17
2022-07-31T04:51:36.208Z,16.12
2022-07-31T04:52:36.196Z,16.09
2022-07-31T04:53:36.157Z,16.08
2022-07-31T04:54:36.148Z,16.08
2022-07-31T04:55:36.135Z,16.07
2022-07-31T04:56:36.177Z,16.07
2022-07-31T04:57:36.131Z,16.09
2022-07-31T04:58:36.107Z,16.08
2022-07-31T05:00:00.678Z,16.07
2022-07-31T05:00:37.079Z,16.14
2022-07-31T05:01:36.171Z,16.05
2022-07-31T05:02:36.093Z,16.09
2022-07-31T05:03:36.044Z,16.08
2022-07-31T05:04:36.034Z,16.09
2022-07-31T05:05:36.021Z,16.15
2022-07-31T05:06:36.020Z,16.15
2022-07-31T05:07:35.999Z,16.17
2022-07-31T05:08:36.015Z,16.20
2022-07-31T05:09:36.468Z,16.38
2022-07-31T05:10:35.969Z,16.35
2022-07-31T05:11:35.952Z,16.43
2022-07-31T05:12:35.971Z,16.57
2022-07-31T05:13:35.934Z,16.76
2022-07-31T05:14:35.949Z,16.89
2022-07-31T05:15:35.910Z,16.88
2022-07-31T05:16:35.901Z,16.96
2022-07-31T05:17:35.915Z,17.04
2022-07-31T05:18:35.872Z,17.14
2022-07-31T05:19:35.866Z,17.21
2022-07-31T05:20:35.852Z,17.26
2022-07-31T05:21:53.035Z,17.25
2022-07-31T05:22:37.014Z,17.38
2022-07-31T05:23:35.821Z,17.43
2022-07-31T05:24:35.841Z,17.41
2022-07-31T05:25:35.791Z,17.38
2022-07-31T05:26:35.810Z,17.37
2022-07-31T05:27:38.893Z,17.34
2022-07-31T05:28:35.785Z,17.44
2022-07-31T05:29:35.747Z,17.38
2022-07-31T05:30:35.741Z,17.49
2022-07-31T05:31:35.731Z,17.55
2022-07-31T05:32:35.715Z,17.59
2022-07-31T05:33:35.890Z,17.64
2022-07-31T05:34:35.698Z,17.68
2022-07-31T05:35:35.681Z,17.64
2022-07-31T05:36:35.697Z,17.75
2022-07-31T05:37:35.661Z,17.68
2022-07-31T05:38:35.676Z,17.70
2022-07-31T05:39:35.639Z,17.70
2022-07-31T05:40:35.629Z,17.77
2022-07-31T05:41:35.618Z,17.74
2022-07-31T05:42:35.610Z,17.90
2022-07-31T05:43:35.645Z,17.95
2022-07-31T05:44:35.582Z,17.97
2022-07-31T05:45:35.576Z,17.93
2022-07-31T05:46:35.560Z,17.95
2022-07-31T05:47:40.884Z,17.97
2022-07-31T05:48:36.563Z,18.05
2022-07-31T05:49:35.693Z,18.00
2022-07-31T05:50:35.523Z,18.02
2022-07-31T05:51:35.531Z,17.99
2022-07-31T05:52:35.500Z,17.89
2022-07-31T05:53:35.479Z,17.99
2022-07-31T05:54:35.477Z,18.03
2022-07-31T05:55:35.456Z,17.90
2022-07-31T05:56:35.451Z,17.99
2022-07-31T05:57:35.455Z,17.96
2022-07-31T05:58:35.445Z,17.96
2022-07-31T05:59:35.415Z,18.08
2022-07-31T06:00:35.407Z,18.14
2022-07-31T06:01:35.546Z,18.17
2022-07-31T06:02:35.377Z,18.37
2022-07-31T06:03:52.301Z,18.48
2022-07-31T06:04:36.361Z,18.72
2022-07-31T06:05:35.341Z,18.75
2022-07-31T06:06:35.333Z,18.75
2022-07-31T06:07:35.339Z,18.94
2022-07-31T06:08:35.309Z,19.29
2022-07-31T06:09:35.318Z,19.54
2022-07-31T06:10:35.286Z,19.68
2022-07-31T06:11:35.273Z,20.05
2022-07-31T06:12:35.287Z,20.32
2022-07-31T06:13:35.254Z,20.73
2022-07-31T06:14:35.237Z,20.91
2022-07-31T06:15:36.734Z,21.13
2022-07-31T06:16:35.221Z,21.40
2022-07-31T06:17:40.600Z,21.50
2022-07-31T06:18:36.195Z,21.53
2022-07-31T06:19:35.183Z,21.82
2022-07-31T06:20:35.179Z,21.96
2022-07-31T06:21:35.161Z,21.91
2022-07-31T06:22:35.152Z,22.10
2022-07-31T06:23:35.161Z,21.90
2022-07-31T06:24:35.130Z,21.37
2022-07-31T06:25:38.884Z,21.14
2022-07-31T06:26:35.115Z,20.92
2022-07-31T06:27:35.319Z,20.95
2022-07-31T06:28:46.530Z,21.01
2022-07-31T06:29:41.935Z,21.16
2022-07-31T06:30:36.069Z,21.37
2022-07-31T06:31:35.056Z,21.56
2022-07-31T06:32:35.062Z,21.86
2022-07-31T06:33:37.443Z,22.06
2022-07-31T06:34:35.020Z,22.20
2022-07-31T06:35:35.005Z,22.45
2022-07-31T06:36:34.995Z,22.73
2022-07-31T06:37:34.983Z,22.91
2022-07-31T06:38:34.999Z,22.79
2022-07-31T06:39:55.849Z,22.47
2022-07-31T06:40:35.951Z,22.17
2022-07-31T06:41:34.939Z,22.10
2022-07-31T06:42:34.930Z,21.72
2022-07-31T06:43:34.942Z,21.56
2022-07-31T06:44:34.906Z,21.52
2022-07-31T06:45:51.410Z,21.40
2022-07-31T06:46:35.889Z,21.43
2022-07-31T06:47:34.874Z,21.43
2022-07-31T06:48:35.186Z,21.46
2022-07-31T06:49:34.971Z,21.32
2022-07-31T06:50:34.863Z,21.24
2022-07-31T06:51:34.824Z,21.38
2022-07-31T06:52:34.816Z,21.17
2022-07-31T06:53:34.827Z,21.16
2022-07-31T06:54:34.793Z,21.28
2022-07-31T06:55:34.785Z,21.27
2022-07-31T06:56:34.768Z,21.22
2022-07-31T06:57:34.760Z,21.22
2022-07-31T06:58:34.748Z,21.25
2022-07-31T06:59:39.761Z,21.29
2022-07-31T07:00:35.725Z,21.28
2022-07-31T07:01:34.750Z,21.28
2022-07-31T07:02:34.729Z,21.24
2022-07-31T07:03:34.690Z,21.35
2022-07-31T07:04:56.354Z,21.24
2022-07-31T07:05:35.666Z,21.29
2022-07-31T07:06:34.679Z,21.28
2022-07-31T07:07:34.647Z,21.38
2022-07-31T07:08:34.636Z,21.29
2022-07-31T07:09:34.630Z,21.38
2022-07-31T07:10:34.612Z,21.53
2022-07-31T07:11:34.629Z,21.54
2022-07-31T07:12:34.789Z,21.50
2022-07-31T07:13:45.113Z,21.52
2022-07-31T07:14:35.566Z,21.38
2022-07-31T07:15:34.579Z,21.46
2022-07-31T07:16:34.567Z,21.50
2022-07-31T07:17:34.535Z,21.67
2022-07-31T07:18:34.523Z,21.91
2022-07-31T07:19:34.508Z,22.20
2022-07-31T07:20:34.521Z,22.39
2022-07-31T07:21:34.483Z,22.64
2022-07-31T07:22:34.500Z,22.88
2022-07-31T07:23:34.468Z,22.98
2022-07-31T07:24:34.451Z,23.02
2022-07-31T07:25:34.443Z,23.00
2022-07-31T07:26:34.461Z,23.05
2022-07-31T07:27:34.451Z,23.16
2022-07-31T07:28:34.417Z,22.88
2022-07-31T07:29:34.400Z,22.80
2022-07-31T07:30:34.390Z,22.76
2022-07-31T07:31:34.396Z,22.80
2022-07-31T07:32:34.370Z,22.83
2022-07-31T07:33:39.650Z,22.86
2022-07-31T07:34:35.345Z,23.10
2022-07-31T07:35:34.367Z,23.46
2022-07-31T07:36:34.325Z,23.38
2022-07-31T07:37:38.798Z,23.31
2022-07-31T07:38:34.299Z,23.32
2022-07-31T07:39:34.294Z,23.31
2022-07-31T07:40:34.368Z,23.35
2022-07-31T07:41:34.267Z,23.32
2022-07-31T07:42:34.261Z,23.47
2022-07-31T07:43:34.248Z,23.57
2022-07-31T07:44:34.234Z,23.73
2022-07-31T07:45:34.245Z,23.76
2022-07-31T07:46:34.214Z,23.65
2022-07-31T07:47:53.903Z,23.51
2022-07-31T07:48:35.190Z,23.65
2022-07-31T07:49:34.250Z,23.72
2022-07-31T07:50:34.167Z,23.73
2022-07-31T07:51:34.157Z,23.68
2022-07-31T07:52:34.146Z,23.85
2022-07-31T07:53:34.136Z,23.87
2022-07-31T07:54:34.146Z,23.75
2022-07-31T07:55:37.254Z,23.93
2022-07-31T07:56:34.098Z,24.15
2022-07-31T07:57:34.088Z,24.20
2022-07-31T07:58:34.077Z,24.18
2022-07-31T07:59:34.090Z,24.10
2022-07-31T08:00:34.054Z,24.08
2022-07-31T08:01:34.091Z,23.79
2022-07-31T08:02:34.035Z,23.85
2022-07-31T08:03:49.099Z,23.95
2022-07-31T08:04:35.035Z,23.95
2022-07-31T08:05:34.002Z,24.12
2022-07-31T08:06:33.989Z,24.22
2022-07-31T08:07:41.833Z,24.31
2022-07-31T08:08:35.003Z,24.35
2022-07-31T08:09:33.954Z,24.31
2022-07-31T08:10:33.946Z,24.28
2022-07-31T08:11:33.938Z,24.34
2022-07-31T08:12:33.922Z,24.21
2022-07-31T08:13:33.909Z,24.32
2022-07-31T08:14:33.927Z,24.43
2022-07-31T08:15:33.888Z,24.46
2022-07-31T08:16:33.873Z,24.49
2022-07-31T08:17:33.868Z,24.69
2022-07-31T08:18:33.879Z,24.88
2022-07-31T08:19:33.848Z,25.06
2022-07-31T08:20:33.829Z,25.03
2022-07-31T08:21:33.820Z,25.13
2022-07-31T08:22:33.840Z,24.85
2022-07-31T08:23:33.803Z,24.58
2022-07-31T08:24:33.793Z,24.55
2022-07-31T08:25:33.805Z,24.46
2022-07-31T08:26:33.793Z,24.55
2022-07-31T08:27:40.497Z,24.77
2022-07-31T08:28:34.744Z,24.76
2022-07-31T08:29:33.735Z,24.76
2022-07-31T08:30:33.745Z,24.84
2022-07-31T08:31:33.714Z,24.85
2022-07-31T08:32:33.697Z,24.78
2022-07-31T08:33:33.696Z,25.02
2022-07-31T08:34:33.678Z,25.05
2022-07-31T08:35:33.692Z,25.08
2022-07-31T08:36:33.682Z,25.13
2022-07-31T08:38:01.253Z,25.13
2022-07-31T08:38:34.636Z,25.18
2022-07-31T08:39:33.628Z,25.21
2022-07-31T08:40:42.773Z,25.24
2022-07-31T08:41:34.621Z,25.13
2022-07-31T08:42:33.614Z,25.15
2022-07-31T08:44:00.910Z,25.15
2022-07-31T08:44:34.568Z,25.06
2022-07-31T08:45:36.368Z,25.03
2022-07-31T08:46:34.546Z,25.05
2022-07-31T08:47:33.560Z,25.05
2022-07-31T08:48:33.525Z,24.88
2022-07-31T08:49:33.585Z,25.02
2022-07-31T08:50:33.503Z,25.03
2022-07-31T08:51:33.529Z,25.09
2022-07-31T08:52:34.482Z,25.10
2022-07-31T08:53:33.473Z,25.14
2022-07-31T08:54:33.461Z,25.15
2022-07-31T08:55:57.102Z,25.14
2022-07-31T08:56:34.459Z,25.13
2022-07-31T08:57:33.430Z,25.02
2022-07-31T08:58:38.699Z,25.10
2022-07-31T08:59:34.666Z,25.27
2022-07-31T09:00:33.396Z,25.28
2022-07-31T09:01:33.448Z,25.42
2022-07-31T09:02:33.374Z,25.45
2022-07-31T09:03:33.382Z,25.46
2022-07-31T09:04:33.350Z,25.60
2022-07-31T09:05:42.066Z,25.73
2022-07-31T09:06:34.326Z,25.91
2022-07-31T09:07:33.346Z,26.12
2022-07-31T09:08:33.306Z,26.30
2022-07-31T09:09:41.138Z,26.29
2022-07-31T09:10:34.284Z,26.13
2022-07-31T09:11:33.297Z,25.91
2022-07-31T09:12:34.250Z,25.98
2022-07-31T09:13:33.277Z,25.97
2022-07-31T09:14:33.240Z,25.95
2022-07-31T09:15:33.232Z,25.95
2022-07-31T09:16:33.237Z,26.07
2022-07-31T09:17:33.208Z,26.13
2022-07-31T09:18:33.196Z,26.12
2022-07-31T09:19:52.049Z,26.07
2022-07-31T09:20:34.172Z,25.92
2022-07-31T09:21:33.183Z,25.95
2022-07-31T09:22:33.152Z,25.99
2022-07-31T09:23:33.145Z,25.99
2022-07-31T09:24:36.969Z,25.99
2022-07-31T09:25:34.117Z,25.95
2022-07-31T09:26:33.129Z,25.97
2022-07-31T09:27:33.124Z,25.92
2022-07-31T09:28:33.088Z,25.98
2022-07-31T09:29:33.077Z,25.94
2022-07-31T09:30:33.066Z,25.92
2022-07-31T09:31:33.080Z,25.91
2022-07-31T09:32:33.049Z,25.88
2022-07-31T09:33:33.065Z,25.91
2022-07-31T09:34:33.022Z,25.98
2022-07-31T09:35:33.011Z,26.01
2022-07-31T09:36:33.001Z,26.12
2022-07-31T09:37:33.012Z,26.23
2022-07-31T09:38:32.999Z,25.98
2022-07-31T09:39:32.962Z,25.94
2022-07-31T09:40:32.956Z,26.12
2022-07-31T09:41:57.973Z,26.10
2022-07-31T09:42:33.932Z,26.06
2022-07-31T09:43:32.924Z,26.10
2022-07-31T09:44:32.912Z,26.09
2022-07-31T09:45:32.909Z,26.17
2022-07-31T09:46:32.892Z,26.15
2022-07-31T09:47:32.901Z,26.21
2022-07-31T09:48:32.868Z,26.20
2022-07-31T09:49:32.930Z,26.23
2022-07-31T09:50:32.846Z,26.17
2022-07-31T09:51:32.856Z,26.09
2022-07-31T09:52:32.939Z,26.18
2022-07-31T09:53:32.855Z,26.21
2022-07-31T09:54:32.804Z,26.25
2022-07-31T09:55:32.819Z,26.26
2022-07-31T09:56:32.781Z,26.25
2022-07-31T09:57:32.774Z,26.23
2022-07-31T09:58:32.757Z,26.30
2022-07-31T09:59:32.755Z,26.30
2022-07-31T10:00:32.865Z,26.13
2022-07-31T10:01:32.791Z,26.26
2022-07-31T10:02:32.714Z,26.33
2022-07-31T10:03:32.703Z,26.51
2022-07-31T10:04:32.691Z,26.58
2022-07-31T10:05:32.709Z,26.51
2022-07-31T10:06:32.672Z,26.69
2022-07-31T10:07:33.042Z,26.89
2022-07-31T10:08:32.648Z,26.91
2022-07-31T10:09:32.920Z,27.12
2022-07-31T10:10:32.648Z,27.12
2022-07-31T10:11:32.614Z,27.04
2022-07-31T10:12:32.605Z,27.13
2022-07-31T10:13:32.596Z,26.89
2022-07-31T10:14:32.606Z,27.02
2022-07-31T10:15:32.602Z,27.04
2022-07-31T10:16:32.587Z,27.14
2022-07-31T10:17:36.007Z,27.02
2022-07-31T10:18:36.442Z,26.94
2022-07-31T10:19:32.531Z,27.03
2022-07-31T10:20:32.538Z,27.25
2022-07-31T10:21:32.504Z,27.12
2022-07-31T10:22:32.502Z,27.27
2022-07-31T10:23:32.484Z,27.22
2022-07-31T10:24:32.498Z,27.25
2022-07-31T10:25:32.489Z,27.28
2022-07-31T10:26:57.857Z,27.18
2022-07-31T10:27:33.443Z,26.94
2022-07-31T10:28:33.429Z,26.95
2022-07-31T10:29:33.173Z,26.99
2022-07-31T10:30:32.416Z,26.99
2022-07-31T10:31:32.416Z,27.09
2022-07-31T10:32:32.389Z,27.21
2022-07-31T10:33:46.960Z,27.31
2022-07-31T10:34:33.391Z,27.46
2022-07-31T10:35:32.355Z,27.59
2022-07-31T10:36:32.342Z,27.66
2022-07-31T10:37:32.334Z,27.90
2022-07-31T10:38:36.575Z,28.03
2022-07-31T10:39:33.328Z,28.03
2022-07-31T10:40:32.295Z,28.06
2022-07-31T10:41:32.298Z,28.09
2022-07-31T10:42:32.298Z,28.06
2022-07-31T10:43:32.264Z,28.17
2022-07-31T10:44:35.484Z,28.15
2022-07-31T10:45:33.247Z,28.09
2022-07-31T10:46:32.247Z,28.07
2022-07-31T10:47:32.245Z,28.06
2022-07-31T10:48:32.212Z,28.00
2022-07-31T10:49:32.299Z,28.03
2022-07-31T10:50:32.189Z,27.99
2022-07-31T10:51:32.204Z,28.21
2022-07-31T10:52:32.166Z,28.39
2022-07-31T10:53:51.616Z,28.51
2022-07-31T10:54:33.139Z,28.67
2022-07-31T10:55:32.136Z,28.88
2022-07-31T10:56:32.123Z,29.05
2022-07-31T10:57:32.117Z,29.11
2022-07-31T10:58:32.122Z,29.09
2022-07-31T10:59:32.090Z,29.00
2022-07-31T11:00:32.083Z,28.92
2022-07-31T11:01:32.102Z,28.62
2022-07-31T11:02:32.056Z,28.54
2022-07-31T11:03:32.074Z,28.46
2022-07-31T11:04:32.034Z,28.46
2022-07-31T11:05:32.025Z,28.21
2022-07-31T11:06:33.015Z,28.18
2022-07-31T11:07:32.000Z,28.15
2022-07-31T11:08:31.993Z,28.12
2022-07-31T11:09:32.003Z,28.02
2022-07-31T11:10:31.992Z,27.94
2022-07-31T11:11:31.960Z,27.87
2022-07-31T11:12:31.954Z,27.87
2022-07-31T11:13:33.804Z,27.81
2022-07-31T11:14:32.950Z,27.77
2022-07-31T11:15:31.922Z,27.63
2022-07-31T11:16:31.911Z,27.69
2022-07-31T11:18:21.123Z,27.57
2022-07-31T11:18:34.577Z,27.47
2022-07-31T11:19:31.895Z,27.44
2022-07-31T11:20:32.864Z,27.49
2022-07-31T11:21:38.613Z,27.43
2022-07-31T11:22:33.257Z,27.47
2022-07-31T11:23:31.860Z,27.66
2022-07-31T11:24:31.845Z,27.59
2022-07-31T11:25:31.811Z,27.62
2022-07-31T11:26:33.273Z,27.78
2022-07-31T11:27:32.794Z,27.96
2022-07-31T11:28:31.781Z,28.24
2022-07-31T11:29:59.335Z,28.52
2022-07-31T11:30:32.756Z,28.76
2022-07-31T11:31:31.751Z,28.96
2022-07-31T11:32:31.733Z,29.08
2022-07-31T11:33:41.820Z,29.12
2022-07-31T11:34:32.737Z,29.16
2022-07-31T11:35:31.703Z,29.28
2022-07-31T11:36:31.688Z,29.21
2022-07-31T11:37:46.335Z,29.26
2022-07-31T11:38:32.666Z,29.21
2022-07-31T11:39:37.019Z,29.21
2022-07-31T11:40:32.648Z,29.11
2022-07-31T11:41:39.775Z,29.28
2022-07-31T11:42:36.108Z,29.11
2022-07-31T11:43:31.614Z,29.04
2022-07-31T11:44:31.626Z,29.06
2022-07-31T11:45:33.473Z,28.96
2022-07-31T11:46:31.584Z,28.98
2022-07-31T11:48:11.806Z,28.95
2022-07-31T11:48:38.095Z,28.85
2022-07-31T11:49:41.747Z,28.90
2022-07-31T11:50:32.547Z,29.00
2022-07-31T11:51:31.536Z,28.85
2022-07-31T11:52:37.614Z,28.96
2022-07-31T11:53:32.501Z,28.93
2022-07-31T11:54:31.491Z,28.90
2022-07-31T11:55:31.484Z,28.96
2022-07-31T11:56:31.475Z,28.80
2022-07-31T11:57:52.242Z,28.85
2022-07-31T11:58:32.482Z,28.78
2022-07-31T11:59:45.951Z,28.73
2022-07-31T12:00:32.437Z,28.85
2022-07-31T12:01:31.425Z,28.96
2022-07-31T12:02:31.515Z,28.88
2022-07-31T12:03:31.426Z,28.85
2022-07-31T12:04:31.414Z,28.89
2022-07-31T12:05:37.745Z,28.74
2022-07-31T12:06:34.954Z,28.61
2022-07-31T12:07:31.358Z,28.68
2022-07-31T12:08:31.345Z,28.78
2022-07-31T12:10:00.358Z,28.90
2022-07-31T12:10:32.346Z,29.28
2022-07-31T12:11:31.339Z,29.53
2022-07-31T12:12:31.299Z,29.78
2022-07-31T12:13:31.302Z,29.82
2022-07-31T12:14:31.279Z,29.90
2022-07-31T12:15:31.370Z,29.80
2022-07-31T12:16:31.284Z,29.70
2022-07-31T12:17:31.246Z,29.58
2022-07-31T12:18:31.255Z,29.55
2022-07-31T12:19:31.248Z,29.46
2022-07-31T12:20:36.840Z,29.27
2022-07-31T12:21:32.205Z,29.24
2022-07-31T12:22:31.192Z,29.09
2022-07-31T12:23:40.733Z,28.88
2022-07-31T12:24:32.169Z,28.76
2022-07-31T12:25:31.160Z,28.68
2022-07-31T12:26:31.146Z,28.62
2022-07-31T12:27:31.170Z,28.70
2022-07-31T12:28:31.132Z,28.83
2022-07-31T12:29:31.116Z,28.71
2022-07-31T12:30:31.110Z,28.70
2022-07-31T12:31:31.098Z,28.52
2022-07-31T12:32:31.108Z,28.51
2022-07-31T12:33:31.099Z,28.56
2022-07-31T12:34:31.090Z,28.59
2022-07-31T12:35:55.350Z,28.49
2022-07-31T12:36:32.075Z,28.40
2022-07-31T12:37:31.031Z,28.49
2022-07-31T12:38:41.256Z,28.33
2022-07-31T12:39:54.319Z,28.30
2022-07-31T12:40:32.000Z,28.43
2022-07-31T12:41:31.010Z,28.48
2022-07-31T12:42:33.044Z,28.39
2022-07-31T12:43:30.965Z,28.48
2022-07-31T12:44:30.952Z,28.49
2022-07-31T12:45:30.944Z,28.49
2022-07-31T12:46:30.953Z,28.51
2022-07-31T12:47:30.930Z,28.48
2022-07-31T12:48:33.782Z,28.54
2022-07-31T12:49:32.022Z,28.49
2022-07-31T12:50:30.896Z,28.31
2022-07-31T12:51:45.668Z,28.33
2022-07-31T12:52:31.885Z,28.25